createdAt,value
2019-02-10T00:01:45.469Z,100323.14
2019-02-10T00:04:18.846Z,100319.64
2019-02-10T00:06:52.211Z,100313.97
2019-02-10T00:09:25.479Z,100311.85
2019-02-10T00:11:58.786Z,100297.13
2019-02-10T00:14:32.061Z,100293.23
2019-02-10T00:17:05.839Z,100286.32
2019-02-10T00:19:39.167Z,100279.80
2019-02-10T00:22:12.426Z,100272.77
2019-02-10T00:24:45.709Z,100269.25
2019-02-10T00:27:19.008Z,100258.73
2019-02-10T00:29:52.293Z,100253.92
2019-02-10T00:32:25.585Z,100252.15
2019-02-10T00:34:58.872Z,100260.89
2019-02-10T00:37:32.160Z,100246.08
2019-02-10T00:40:06.197Z,100245.62
2019-02-10T00:42:39.793Z,100247.02
2019-02-10T00:45:13.045Z,100232.12
2019-02-10T00:47:46.347Z,100244.24
2019-02-10T00:50:20.622Z,100240.37
2019-02-10T00:52:53.915Z,100234.26
2019-02-10T00:55:27.275Z,100237.72
2019-02-10T00:58:00.570Z,100229.02
2019-02-10T01:00:33.853Z,100210.82
2019-02-10T01:03:08.625Z,100218.19
2019-02-10T01:05:41.964Z,100211.73
2019-02-10T01:08:15.260Z,100201.68
2019-02-10T01:10:48.613Z,100195.55
2019-02-10T01:13:21.907Z,100184.24
2019-02-10T01:15:55.180Z,100175.92
2019-02-10T01:18:29.726Z,100168.90
2019-02-10T01:21:04.735Z,100170.20
2019-02-10T01:23:38.014Z,100172.41
2019-02-10T01:26:11.291Z,100166.73
2019-02-10T01:28:44.576Z,100161.94
2019-02-10T01:31:17.840Z,100163.20
2019-02-10T01:33:51.147Z,100149.66
2019-02-10T01:36:24.419Z,100144.00
2019-02-10T01:38:57.690Z,100138.23
2019-02-10T01:41:33.140Z,100136.97
2019-02-10T01:44:06.448Z,100121.30
2019-02-10T01:46:41.359Z,100120.36
2019-02-10T01:49:14.695Z,100114.55
2019-02-10T01:51:47.921Z,100102.41
2019-02-10T01:54:21.363Z,100089.72
2019-02-10T01:56:54.635Z,100083.95
2019-02-10T01:59:27.912Z,100070.23
2019-02-10T02:02:01.466Z,100052.82
2019-02-10T02:04:34.737Z,100044.34
2019-02-10T02:07:08.016Z,100034.03
2019-02-10T02:09:42.849Z,100019.41
2019-02-10T02:12:16.214Z,100030.32
2019-02-10T02:14:49.512Z,100027.19
2019-02-10T02:17:22.794Z,100011.45
2019-02-10T02:19:56.078Z,100001.81
2019-02-10T02:22:29.344Z,100002.27
2019-02-10T02:25:02.677Z,100011.08
2019-02-10T02:27:36.063Z,99997.89
2019-02-10T02:30:13.265Z,99978.20
2019-02-10T02:32:47.733Z,99980.00
2019-02-10T02:35:21.030Z,99983.92
2019-02-10T02:37:54.291Z,99977.48
2019-02-10T02:40:27.586Z,99977.11
2019-02-10T02:43:01.924Z,99962.38
2019-02-10T02:45:35.216Z,99966.17
2019-02-10T02:48:08.494Z,99956.69
2019-02-10T02:50:43.334Z,99937.81
2019-02-10T02:53:16.596Z,99940.00
2019-02-10T02:55:49.935Z,99929.03
2019-02-10T02:58:23.218Z,99924.53
2019-02-10T03:00:56.544Z,99924.70
2019-02-10T03:03:29.815Z,99904.06
2019-02-10T03:06:03.076Z,99898.31
2019-02-10T03:08:36.376Z,99887.30
2019-02-10T03:11:09.637Z,99884.28
2019-02-10T03:13:42.921Z,99899.16
2019-02-10T03:16:16.198Z,99899.11
2019-02-10T03:18:53.186Z,99879.17
2019-02-10T03:21:24.489Z,99871.33
2019-02-10T03:23:57.803Z,99855.16
2019-02-10T03:26:31.069Z,99847.66
2019-02-10T03:29:04.369Z,99842.60
2019-02-10T03:31:37.648Z,99838.68
2019-02-10T03:34:10.931Z,99824.20
2019-02-10T03:36:44.193Z,99832.84
2019-02-10T03:39:17.484Z,99817.02
2019-02-10T03:41:50.771Z,99818.06
2019-02-10T03:44:24.061Z,99810.48
2019-02-10T03:46:57.315Z,99801.33
2019-02-10T03:49:30.658Z,99791.77
2019-02-10T03:52:03.961Z,99786.16
2019-02-10T03:54:37.301Z,99778.34
2019-02-10T03:57:10.569Z,99779.09
2019-02-10T03:59:43.876Z,99768.58
2019-02-10T04:02:17.150Z,99755.16
2019-02-10T04:04:50.438Z,99753.06
2019-02-10T04:07:23.694Z,99740.07
2019-02-10T04:09:57.813Z,99732.23
2019-02-10T04:12:31.059Z,99730.45
2019-02-10T04:15:05.873Z,99725.89
2019-02-10T04:17:39.143Z,99726.03
2019-02-10T04:20:12.441Z,99722.80
2019-02-10T04:22:45.707Z,99714.02
2019-02-10T04:25:18.997Z,99709.38
2019-02-10T04:27:52.275Z,99701.67
2019-02-10T04:30:25.558Z,99700.22
2019-02-10T04:32:58.822Z,99693.16
2019-02-10T04:35:32.121Z,99692.77
2019-02-10T04:38:05.399Z,99680.21
2019-02-10T04:40:38.674Z,99681.82
2019-02-10T04:43:11.930Z,99675.20
2019-02-10T04:45:45.223Z,99669.83
2019-02-10T04:48:18.484Z,99664.30
2019-02-10T04:50:51.786Z,99659.36
2019-02-10T04:53:25.077Z,99651.66
2019-02-10T04:56:14.942Z,99650.41
2019-02-10T04:58:48.195Z,99630.95
2019-02-10T05:01:21.472Z,99615.74
2019-02-10T05:03:54.750Z,99620.58
2019-02-10T05:06:28.052Z,99613.80
2019-02-10T05:09:01.311Z,99613.66
2019-02-10T05:11:34.633Z,99616.67
2019-02-10T05:14:07.917Z,99603.24
2019-02-10T05:16:41.190Z,99592.40
2019-02-10T05:19:14.447Z,99592.20
2019-02-10T05:21:47.726Z,99577.59
2019-02-10T05:24:20.983Z,99576.02
2019-02-10T05:26:54.288Z,99573.34
2019-02-10T05:29:27.544Z,99561.48
2019-02-10T05:32:00.823Z,99547.18
2019-02-10T05:34:34.073Z,99538.84
2019-02-10T05:37:07.358Z,99534.31
2019-02-10T05:39:40.642Z,99526.25
2019-02-10T05:42:13.922Z,99525.85
2019-02-10T05:44:47.197Z,99524.01
2019-02-10T05:47:20.487Z,99525.59
2019-02-10T05:49:53.747Z,99520.03
2019-02-10T05:52:27.031Z,99515.55
2019-02-10T05:55:01.067Z,99500.16
2019-02-10T05:57:34.353Z,99496.48
2019-02-10T06:00:08.374Z,99486.14
2019-02-10T06:02:41.677Z,99477.12
2019-02-10T06:05:20.635Z,99474.52
2019-02-10T06:07:53.889Z,99466.84
2019-02-10T06:10:27.156Z,99458.42
2019-02-10T06:13:00.425Z,99458.42
2019-02-10T06:15:33.720Z,99464.03
2019-02-10T06:18:06.988Z,99451.55
2019-02-10T06:20:40.286Z,99453.50
2019-02-10T06:23:13.566Z,99455.48
2019-02-10T06:25:46.857Z,99462.83
2019-02-10T06:28:20.115Z,99454.80
2019-02-10T06:30:53.411Z,99446.94
2019-02-10T06:33:28.436Z,99439.91
2019-02-10T06:36:01.758Z,99438.89
2019-02-10T06:38:35.023Z,99452.70
2019-02-10T06:41:08.310Z,99416.52
2019-02-10T06:43:41.596Z,99412.26
2019-02-10T06:46:14.868Z,99403.08
2019-02-10T06:48:48.129Z,99402.27
2019-02-10T06:51:21.410Z,99376.15
2019-02-10T06:53:54.674Z,99369.14
2019-02-10T06:56:27.998Z,99357.72
2019-02-10T06:59:01.272Z,99356.06
2019-02-10T07:01:36.194Z,99330.33
2019-02-10T07:04:12.486Z,99328.80
2019-02-10T07:06:45.763Z,99307.61
2019-02-10T07:09:19.046Z,99285.88
2019-02-10T07:11:52.348Z,99277.15
2019-02-10T07:14:28.624Z,99267.83
2019-02-10T07:17:10.777Z,99269.55
2019-02-10T07:20:20.732Z,99268.48
2019-02-10T07:22:55.562Z,99273.33
2019-02-10T07:25:43.519Z,99270.02
2019-02-10T07:28:19.973Z,99250.69
2019-02-10T07:31:00.887Z,99236.70
2019-02-10T07:34:06.084Z,99233.81
2019-02-10T07:36:48.664Z,99231.61
2019-02-10T07:39:27.629Z,99217.13
2019-02-10T07:42:12.856Z,99215.20
2019-02-10T07:44:55.244Z,99217.84
2019-02-10T07:47:37.209Z,99218.02
2019-02-10T07:50:13.657Z,99227.06
2019-02-10T07:52:55.487Z,99219.11
2019-02-10T07:55:47.171Z,99231.75
2019-02-10T07:58:29.535Z,99234.60
2019-02-10T08:01:21.187Z,99242.05
2019-02-10T08:04:12.642Z,99226.93
2019-02-10T08:06:55.064Z,99235.39
2019-02-10T08:10:03.298Z,99237.19
2019-02-10T08:12:51.869Z,99237.67
2019-02-10T08:15:28.326Z,99231.03
2019-02-10T08:18:10.520Z,99230.44
2019-02-10T08:20:55.940Z,99224.16
2019-02-10T08:23:44.496Z,99221.13
2019-02-10T08:26:51.418Z,99215.45
2019-02-10T08:29:47.279Z,99211.80
2019-02-10T08:32:24.282Z,99210.41
2019-02-10T08:35:23.079Z,99205.27
2019-02-10T08:38:14.435Z,99202.77
2019-02-10T08:41:05.999Z,99186.34
2019-02-10T08:44:00.032Z,99190.14
2019-02-10T08:46:41.963Z,99175.11
2019-02-10T08:49:18.395Z,99165.91
2019-02-10T08:52:18.977Z,99163.73
2019-02-10T08:54:52.331Z,99152.96
2019-02-10T08:57:25.630Z,99141.69
2019-02-10T08:59:58.895Z,99136.03
2019-02-10T09:02:32.187Z,99128.14
2019-02-10T09:05:06.714Z,99114.02
2019-02-10T09:07:40.018Z,99101.27
2019-02-10T09:10:13.754Z,99097.11
2019-02-10T09:12:47.078Z,99079.28
2019-02-10T09:15:20.351Z,99074.30
2019-02-10T09:17:53.655Z,99070.50
2019-02-10T09:20:26.984Z,99053.34
2019-02-10T09:23:00.280Z,99054.13
2019-02-10T09:25:33.554Z,99045.59
2019-02-10T09:28:06.868Z,99039.88
2019-02-10T09:30:40.146Z,99025.81
2019-02-10T09:33:13.458Z,99026.89
2019-02-10T09:35:46.733Z,99022.27
2019-02-10T09:38:20.035Z,99012.47
2019-02-10T09:40:53.322Z,99001.38
2019-02-10T09:43:26.652Z,98999.05
2019-02-10T09:45:59.935Z,99000.68
2019-02-10T09:48:33.237Z,98997.68
2019-02-10T09:51:06.548Z,98991.12
2019-02-10T09:53:39.887Z,98987.07
2019-02-10T09:56:13.182Z,98986.81
2019-02-10T09:58:46.550Z,98973.57
2019-02-10T10:01:19.896Z,98971.20
2019-02-10T10:03:53.190Z,98969.74
2019-02-10T10:06:26.460Z,98965.95
2019-02-10T10:08:59.790Z,98965.03
2019-02-10T10:11:33.124Z,98961.20
2019-02-10T10:14:06.424Z,98963.66
2019-02-10T10:16:39.751Z,98962.66
2019-02-10T10:19:13.059Z,98959.45
2019-02-10T10:21:46.361Z,98947.09
2019-02-10T10:24:19.640Z,98932.11
2019-02-10T10:26:53.009Z,98935.77
2019-02-10T10:29:26.319Z,98927.55
2019-02-10T10:31:59.602Z,98925.44
2019-02-10T10:34:35.971Z,98925.27
2019-02-10T10:37:09.283Z,98919.42
2019-02-10T10:39:42.579Z,98922.27
2019-02-10T10:42:15.878Z,98918.46
2019-02-10T10:44:49.187Z,98917.39
2019-02-10T10:47:22.459Z,98896.22
2019-02-10T10:49:55.741Z,98901.25
2019-02-10T10:52:29.068Z,98898.92
2019-02-10T10:55:02.362Z,98911.08
2019-02-10T10:57:35.643Z,98902.01
2019-02-10T11:00:15.735Z,98896.86
2019-02-10T11:02:49.150Z,98882.78
2019-02-10T11:05:22.459Z,98863.13
2019-02-10T11:07:55.751Z,98869.39
2019-02-10T11:10:29.100Z,98861.69
2019-02-10T11:13:02.462Z,98856.02
2019-02-10T11:15:35.758Z,98803.64
2019-02-10T11:18:09.055Z,98846.23
2019-02-10T11:20:42.446Z,98838.59
2019-02-10T11:23:15.725Z,98830.92
2019-02-10T11:25:49.049Z,98821.62
2019-02-10T11:28:22.332Z,98814.83
2019-02-10T11:30:55.749Z,98821.62
2019-02-10T11:33:29.030Z,98790.94
2019-02-10T11:36:02.379Z,98805.85
2019-02-10T11:38:35.646Z,98850.61
2019-02-10T11:41:09.048Z,98814.48
2019-02-10T11:43:42.290Z,98815.80
2019-02-10T11:46:15.591Z,98803.39
2019-02-10T11:48:48.882Z,98792.34
2019-02-10T11:51:22.189Z,98798.35
2019-02-10T11:54:03.260Z,98784.39
2019-02-10T11:56:36.561Z,98788.52
2019-02-10T11:59:09.865Z,98785.16
2019-02-10T12:01:43.939Z,98788.61
2019-02-10T12:04:17.233Z,98794.16
2019-02-10T12:06:50.660Z,98787.42
2019-02-10T12:09:23.951Z,98767.97
2019-02-10T12:11:58.894Z,98768.38
2019-02-10T12:14:32.696Z,98781.86
2019-02-10T12:17:06.126Z,98791.97
2019-02-10T12:19:39.424Z,98774.49
2019-02-10T12:22:12.735Z,98770.34
2019-02-10T12:24:46.023Z,98761.10
2019-02-10T12:27:19.369Z,98756.45
2019-02-10T12:29:53.866Z,98758.97
2019-02-10T12:32:27.202Z,98750.58
2019-02-10T12:35:00.467Z,98728.56
2019-02-10T12:37:33.764Z,98730.25
2019-02-10T12:40:08.760Z,98725.16
2019-02-10T12:42:42.160Z,98733.78
2019-02-10T12:45:15.563Z,98711.12
2019-02-10T12:47:48.861Z,98709.82
2019-02-10T12:50:22.177Z,98715.72
2019-02-10T12:52:55.477Z,98714.77
2019-02-10T12:55:29.106Z,98708.61
2019-02-10T12:58:02.422Z,98692.36
2019-02-10T13:00:35.716Z,98698.13
2019-02-10T13:03:10.263Z,98675.57
2019-02-10T13:05:43.556Z,98687.34
2019-02-10T13:08:17.372Z,98670.95
2019-02-10T13:10:51.701Z,98664.80
2019-02-10T13:13:24.996Z,98684.80
2019-02-10T13:15:59.404Z,98652.39
2019-02-10T13:18:32.793Z,98665.21
2019-02-10T13:21:06.136Z,98650.77
2019-02-10T13:23:39.423Z,98653.56
2019-02-10T13:26:12.731Z,98664.63
2019-02-10T13:28:46.023Z,98664.23
2019-02-10T13:31:21.349Z,98668.70
2019-02-10T13:33:57.405Z,98671.48
2019-02-10T13:36:30.664Z,98672.21
2019-02-10T13:39:05.351Z,98664.41
2019-02-10T13:41:37.619Z,98689.30
2019-02-10T13:44:10.961Z,98678.48
2019-02-10T13:46:44.327Z,98672.16
2019-02-10T13:49:17.585Z,98682.52
2019-02-10T13:51:50.890Z,98680.97
2019-02-10T13:54:25.231Z,98688.44
2019-02-10T13:56:59.018Z,98675.31
2019-02-10T13:59:32.311Z,98674.75
2019-02-10T14:02:05.613Z,98674.27
2019-02-10T14:04:38.890Z,98676.88
2019-02-10T14:07:12.267Z,98683.97
2019-02-10T14:09:46.594Z,98689.34
2019-02-10T14:12:19.981Z,98693.81
2019-02-10T14:14:53.247Z,98686.64
2019-02-10T14:17:26.571Z,98694.80
2019-02-10T14:19:59.833Z,98716.19
2019-02-10T14:22:33.182Z,98707.63
2019-02-10T14:25:07.228Z,98718.03
2019-02-10T14:27:41.403Z,98732.34
2019-02-10T14:30:24.977Z,98728.88
2019-02-10T14:32:58.419Z,98735.50
2019-02-10T14:35:31.701Z,98739.40
2019-02-10T14:38:05.117Z,98738.34
2019-02-10T14:40:38.388Z,98766.87
2019-02-10T14:43:11.822Z,98738.05
2019-02-10T14:45:45.125Z,98754.66
2019-02-10T14:48:18.547Z,98760.14
2019-02-10T14:50:51.872Z,98754.95
2019-02-10T14:53:25.793Z,98756.43
2019-02-10T14:55:59.459Z,98757.31
2019-02-10T14:58:32.806Z,98769.80
2019-02-10T15:01:06.096Z,98781.73
2019-02-10T15:03:39.389Z,98772.97
2019-02-10T15:06:12.755Z,98772.66
2019-02-10T15:08:46.101Z,98761.52
2019-02-10T15:11:19.483Z,98769.14
2019-02-10T15:13:52.847Z,98781.45
2019-02-10T15:16:26.176Z,98792.98
2019-02-10T15:18:59.479Z,98797.48
2019-02-10T15:21:32.787Z,98782.66
2019-02-10T15:24:06.142Z,98767.64
2019-02-10T15:26:39.396Z,98771.75
2019-02-10T15:29:13.563Z,98776.98
2019-02-10T15:31:46.868Z,98779.38
2019-02-10T15:34:20.347Z,98778.58
2019-02-10T15:36:53.638Z,98793.02
2019-02-10T15:39:26.952Z,98790.79
2019-02-10T15:42:09.301Z,98801.50
2019-02-10T15:44:36.912Z,98808.55
2019-02-10T15:47:10.201Z,98820.19
2019-02-10T15:49:43.552Z,98823.31
2019-02-10T15:52:16.842Z,98804.20
2019-02-10T15:54:51.828Z,98797.20
2019-02-10T15:57:25.170Z,98805.70
2019-02-10T15:59:58.435Z,98815.11
2019-02-10T16:02:32.029Z,98816.04
2019-02-10T16:05:06.087Z,98815.11
2019-02-10T16:07:41.697Z,98819.97
2019-02-10T16:10:15.049Z,98817.13
2019-02-10T16:12:50.344Z,98820.98
2019-02-10T16:15:23.617Z,98825.61
2019-02-10T16:17:56.904Z,98828.95
2019-02-10T16:20:30.199Z,98835.14
2019-02-10T16:23:03.533Z,98841.11
2019-02-10T16:25:36.835Z,98832.88
2019-02-10T16:28:10.181Z,98851.41
2019-02-10T16:30:43.529Z,98855.33
2019-02-10T16:33:16.839Z,98852.78
2019-02-10T16:35:50.110Z,98864.13
2019-02-10T16:38:23.533Z,98865.67
2019-02-10T16:40:56.805Z,98870.38
2019-02-10T16:43:30.663Z,98881.94
2019-02-10T16:46:03.943Z,98881.35
2019-02-10T16:48:37.786Z,98891.81
2019-02-10T16:51:11.063Z,98860.69
2019-02-10T16:53:44.389Z,98874.66
2019-02-10T16:56:17.640Z,98879.95
2019-02-10T16:58:51.938Z,98888.55
2019-02-10T17:01:25.244Z,98897.32
2019-02-10T17:03:58.542Z,98901.42
2019-02-10T17:06:31.835Z,98920.87
2019-02-10T17:09:06.906Z,98930.73
2019-02-10T17:11:40.219Z,98929.48
2019-02-10T17:14:13.528Z,98931.39
2019-02-10T17:16:46.825Z,98946.44
2019-02-10T17:19:20.139Z,98955.20
2019-02-10T17:21:53.497Z,98952.76
2019-02-10T17:24:28.038Z,98964.25
2019-02-10T17:27:01.340Z,98971.31
2019-02-10T17:29:34.645Z,98979.30
2019-02-10T17:32:07.955Z,98971.87
2019-02-10T17:34:41.229Z,98992.64
2019-02-10T17:37:14.509Z,98981.41
2019-02-10T17:39:48.747Z,98986.31
2019-02-10T17:42:22.027Z,99012.95
2019-02-10T17:44:55.385Z,99018.25
2019-02-10T17:47:30.737Z,99028.76
2019-02-10T17:50:06.211Z,99025.34
2019-02-10T17:52:39.473Z,99033.68
2019-02-10T17:55:12.863Z,99056.34
2019-02-10T17:57:47.895Z,99053.98
2019-02-10T18:00:23.007Z,99060.52
2019-02-10T18:02:57.078Z,99074.89
2019-02-10T18:05:30.417Z,99087.14
2019-02-10T18:08:03.739Z,99084.53
2019-02-10T18:10:37.114Z,99081.71
2019-02-10T18:13:10.947Z,99093.98
2019-02-10T18:15:58.075Z,99102.45
2019-02-10T18:18:42.004Z,99109.77
2019-02-10T18:21:17.051Z,99107.73
2019-02-10T18:23:54.743Z,99119.48
2019-02-10T18:26:29.792Z,99119.72
2019-02-10T18:29:04.722Z,99134.58
2019-02-10T18:31:39.676Z,99122.95
2019-02-10T18:34:30.901Z,99131.30
2019-02-10T18:37:17.471Z,99146.81
2019-02-10T18:39:55.814Z,99150.73
2019-02-10T18:42:30.800Z,99163.02
2019-02-10T18:45:12.508Z,99158.90
2019-02-10T18:47:54.418Z,99161.09
2019-02-10T18:50:36.136Z,99154.00
2019-02-10T18:53:24.098Z,99168.31
2019-02-10T18:56:14.013Z,99164.89
2019-02-10T18:58:54.241Z,99169.45
2019-02-10T19:01:41.058Z,99188.43
2019-02-10T19:04:18.463Z,99193.27
2019-02-10T19:06:53.447Z,99199.37
2019-02-10T19:09:28.730Z,99188.20
2019-02-10T19:12:20.119Z,99175.27
2019-02-10T19:15:06.681Z,99181.20
2019-02-10T19:17:50.618Z,99175.93
2019-02-10T19:20:28.287Z,99185.62
2019-02-10T19:23:18.491Z,99195.28
2019-02-10T19:26:05.657Z,99193.83
2019-02-10T19:28:56.885Z,99177.69
2019-02-10T19:31:37.370Z,99191.92
2019-02-10T19:34:18.372Z,99193.34
2019-02-10T19:36:53.301Z,99208.34
2019-02-10T19:39:40.356Z,99224.08
2019-02-10T19:42:18.036Z,99231.09
2019-02-10T19:45:10.998Z,99228.97
2019-02-10T19:48:01.828Z,99244.97
2019-02-10T19:50:39.323Z,99263.45
2019-02-10T19:53:14.241Z,99261.87
2019-02-10T19:55:49.199Z,99269.77
2019-02-10T19:58:24.117Z,99258.40
2019-02-10T20:01:15.587Z,99269.86
2019-02-10T20:03:59.041Z,99295.26
2019-02-10T20:06:34.486Z,99265.77
2019-02-10T20:09:21.403Z,99291.98
2019-02-10T20:12:03.881Z,99283.92
2019-02-10T20:14:38.395Z,99313.94
2019-02-10T20:17:13.485Z,99340.99
2019-02-10T20:20:03.559Z,99318.95
2019-02-10T20:22:38.463Z,99325.97
2019-02-10T20:25:22.485Z,99323.06
2019-02-10T20:28:13.623Z,99336.45
2019-02-10T20:30:52.396Z,99324.80
2019-02-10T20:33:30.396Z,99348.38
2019-02-10T20:36:08.529Z,99355.86
2019-02-10T20:38:49.489Z,99355.09
2019-02-10T20:41:28.801Z,99351.09
2019-02-10T20:44:23.972Z,99357.83
2019-02-10T20:47:04.914Z,99360.87
2019-02-10T20:49:45.814Z,99361.08
2019-02-10T20:52:30.304Z,99349.35
2019-02-10T20:55:08.362Z,99349.39
2019-02-10T20:57:49.479Z,99379.33
2019-02-10T21:00:26.431Z,99386.95
2019-02-10T21:03:03.802Z,99383.95
2019-02-10T21:05:38.736Z,99405.20
2019-02-10T21:08:16.343Z,99404.48
2019-02-10T21:10:56.988Z,99404.09
2019-02-10T21:13:31.922Z,99412.31
2019-02-10T21:16:12.288Z,99423.53
2019-02-10T21:19:02.047Z,99435.58
2019-02-10T21:21:40.191Z,99443.39
2019-02-10T21:24:18.237Z,99424.23
2019-02-10T21:27:11.562Z,99443.32
2019-02-10T21:29:52.310Z,99446.75
2019-02-10T21:32:27.430Z,99444.34
2019-02-10T21:35:02.447Z,99437.35
2019-02-10T21:37:38.344Z,99440.86
2019-02-10T21:40:15.973Z,99446.16
2019-02-10T21:42:50.888Z,99458.02
2019-02-10T21:45:31.452Z,99452.41
2019-02-10T21:48:09.079Z,99466.28
2019-02-10T21:50:42.390Z,99453.79
2019-02-10T21:53:17.196Z,99454.23
2019-02-10T21:55:52.887Z,99471.52
2019-02-10T21:58:26.170Z,99481.63
2019-02-10T22:00:59.471Z,99485.63
2019-02-10T22:03:32.762Z,99496.35
2019-02-10T22:06:06.045Z,99505.47
2019-02-10T22:08:40.611Z,99525.38
2019-02-10T22:11:13.889Z,99530.22
2019-02-10T22:13:47.173Z,99526.34
2019-02-10T22:16:21.482Z,99537.55
2019-02-10T22:18:54.821Z,99536.27
2019-02-10T22:21:28.127Z,99527.66
2019-02-10T22:24:02.909Z,99537.64
2019-02-10T22:26:37.838Z,99542.95
2019-02-10T22:29:11.109Z,99551.26
2019-02-10T22:31:44.404Z,99558.20
2019-02-10T22:34:17.688Z,99564.75
2019-02-10T22:36:50.969Z,99567.88
2019-02-10T22:39:24.272Z,99578.24
2019-02-10T22:41:57.553Z,99590.74
2019-02-10T22:44:30.832Z,99596.45
2019-02-10T22:47:04.172Z,99596.42
2019-02-10T22:49:37.465Z,99598.09
2019-02-10T22:52:10.831Z,99600.70
2019-02-10T22:54:44.152Z,99594.25
2019-02-10T22:57:17.457Z,99601.19
2019-02-10T22:59:51.483Z,99604.75
2019-02-10T23:02:24.794Z,99607.30
2019-02-10T23:04:58.072Z,99615.06
2019-02-10T23:07:31.342Z,99624.70
2019-02-10T23:10:05.243Z,99624.38
2019-02-10T23:12:38.538Z,99644.78
2019-02-10T23:15:11.832Z,99633.46
2019-02-10T23:17:46.671Z,99636.98
2019-02-10T23:20:20.230Z,99655.25
2019-02-10T23:22:53.520Z,99660.08
2019-02-10T23:25:26.797Z,99676.09
2019-02-10T23:28:00.117Z,99671.80
2019-02-10T23:30:33.391Z,99679.17
2019-02-10T23:33:06.833Z,99693.94
2019-02-10T23:35:40.096Z,99693.45
2019-02-10T23:38:13.368Z,99698.71
2019-02-10T23:40:46.653Z,99712.19
2019-02-10T23:43:20.722Z,99725.66
2019-02-10T23:45:53.988Z,99733.44
2019-02-10T23:48:27.310Z,99737.36
2019-02-10T23:51:00.591Z,99738.69
2019-02-10T23:53:33.914Z,99745.66
2019-02-10T23:56:08.822Z,99738.69
2019-02-10T23:58:42.096Z,99754.75
